sensor_id;sensor_type;location;lat;lon;timestamp;temperature;humidity
7240;DHT22;3661;53.288;10.458;2023-08-30T00:01:21;14.10;99.90
7240;DHT22;3661;53.288;10.458;2023-08-30T00:03:54;14.10;99.90
7240;DHT22;3661;53.288;10.458;2023-08-30T00:06:26;14.10;99.90
7240;DHT22;3661;53.288;10.458;2023-08-30T00:08:59;14.10;99.90
7240;DHT22;3661;53.288;10.458;2023-08-30T00:11:31;14.10;99.90
7240;DHT22;3661;53.288;10.458;2023-08-30T00:14:06;14.00;99.90
7240;DHT22;3661;53.288;10.458;2023-08-30T00:16:38;14.00;99.90
7240;DHT22;3661;53.288;10.458;2023-08-30T00:19:11;14.10;99.90
7240;DHT22;3661;53.288;10.458;2023-08-30T00:21:47;14.10;99.90
7240;DHT22;3661;53.288;10.458;2023-08-30T00:24:22;14.00;99.90
7240;DHT22;3661;53.288;10.458;2023-08-30T00:26:58;14.00;99.90
7240;DHT22;3661;53.288;10.458;2023-08-30T00:29:31;14.00;99.90
7240;DHT22;3661;53.288;10.458;2023-08-30T00:32:04;14.00;99.90
7240;DHT22;3661;53.288;10.458;2023-08-30T00:34:39;14.00;99.90
7240;DHT22;3661;53.288;10.458;2023-08-30T00:37:14;13.90;99.90
7240;DHT22;3661;53.288;10.458;2023-08-30T00:39:47;13.90;99.90
7240;DHT22;3661;53.288;10.458;2023-08-30T00:42:19;13.90;99.90
7240;DHT22;3661;53.288;10.458;2023-08-30T00:44:54;13.90;99.90
7240;DHT22;3661;53.288;10.458;2023-08-30T00:47:26;13.90;99.90
7240;DHT22;3661;53.288;10.458;2023-08-30T00:50:01;13.90;99.90
7240;DHT22;3661;53.288;10.458;2023-08-30T00:52:34;13.90;99.90
7240;DHT22;3661;53.288;10.458;2023-08-30T00:55:08;13.80;99.90
7240;DHT22;3661;53.288;10.458;2023-08-30T00:57:41;13.80;99.90
7240;DHT22;3661;53.288;10.458;2023-08-30T01:00:17;13.70;99.90
7240;DHT22;3661;53.288;10.458;2023-08-30T01:02:50;13.70;99.90
7240;DHT22;3661;53.288;10.458;2023-08-30T01:05:24;13.70;99.90
7240;DHT22;3661;53.288;10.458;2023-08-30T01:07:56;13.70;99.90
7240;DHT22;3661;53.288;10.458;2023-08-30T01:10:35;13.60;99.90
7240;DHT22;3661;53.288;10.458;2023-08-30T01:13:10;13.50;99.90
7240;DHT22;3661;53.288;10.458;2023-08-30T01:15:46;13.50;99.90
7240;DHT22;3661;53.288;10.458;2023-08-30T01:18:20;13.50;99.90
7240;DHT22;3661;53.288;10.458;2023-08-30T01:20:55;13.40;99.90
7240;DHT22;3661;53.288;10.458;2023-08-30T01:23:42;13.50;99.90
7240;DHT22;3661;53.288;10.458;2023-08-30T01:26:26;13.40;99.90
7240;DHT22;3661;53.288;10.458;2023-08-30T01:29:03;13.40;99.90
7240;DHT22;3661;53.288;10.458;2023-08-30T01:31:37;13.30;99.90
7240;DHT22;3661;53.288;10.458;2023-08-30T01:34:10;13.30;99.90
7240;DHT22;3661;53.288;10.458;2023-08-30T01:36:45;13.30;99.90
7240;DHT22;3661;53.288;10.458;2023-08-30T01:39:19;13.20;99.90
7240;DHT22;3661;53.288;10.458;2023-08-30T01:41:53;13.20;99.90
7240;DHT22;3661;53.288;10.458;2023-08-30T01:44:31;13.10;99.90
7240;DHT22;3661;53.288;10.458;2023-08-30T01:47:04;13.10;99.90
7240;DHT22;3661;53.288;10.458;2023-08-30T01:49:37;13.10;99.90
7240;DHT22;3661;53.288;10.458;2023-08-30T01:52:11;13.10;99.90
7240;DHT22;3661;53.288;10.458;2023-08-30T01:54:46;13.10;99.90
7240;DHT22;3661;53.288;10.458;2023-08-30T01:57:19;13.00;99.90
7240;DHT22;3661;53.288;10.458;2023-08-30T01:59:53;13.00;99.90
7240;DHT22;3661;53.288;10.458;2023-08-30T02:02:28;13.00;99.90
7240;DHT22;3661;53.288;10.458;2023-08-30T02:05:01;13.00;99.90
7240;DHT22;3661;53.288;10.458;2023-08-30T02:07:37;13.00;99.90
7240;DHT22;3661;53.288;10.458;2023-08-30T02:10:12;13.00;99.90
7240;DHT22;3661;53.288;10.458;2023-08-30T02:12:49;13.00;99.90
7240;DHT22;3661;53.288;10.458;2023-08-30T02:15:47;13.00;99.90
7240;DHT22;3661;53.288;10.458;2023-08-30T02:18:21;13.00;99.90
7240;DHT22;3661;53.288;10.458;2023-08-30T02:21:07;13.00;99.90
7240;DHT22;3661;53.288;10.458;2023-08-30T02:24:01;13.00;99.90
7240;DHT22;3661;53.288;10.458;2023-08-30T02:27:10;13.00;99.90
7240;DHT22;3661;53.288;10.458;2023-08-30T02:30:01;12.90;99.90
7240;DHT22;3661;53.288;10.458;2023-08-30T02:33:01;12.90;99.90
7240;DHT22;3661;53.288;10.458;2023-08-30T02:35:33;12.90;99.90
7240;DHT22;3661;53.288;10.458;2023-08-30T02:38:06;12.90;99.90
7240;DHT22;3661;53.288;10.458;2023-08-30T02:40:51;12.80;99.90
7240;DHT22;3661;53.288;10.458;2023-08-30T02:43:23;12.80;99.90
7240;DHT22;3661;53.288;10.458;2023-08-30T02:45:56;12.80;99.90
7240;DHT22;3661;53.288;10.458;2023-08-30T02:48:33;12.80;99.90
7240;DHT22;3661;53.288;10.458;2023-08-30T02:51:05;12.70;99.90
7240;DHT22;3661;53.288;10.458;2023-08-30T02:53:38;12.70;99.90
7240;DHT22;3661;53.288;10.458;2023-08-30T02:56:10;12.70;99.90
7240;DHT22;3661;53.288;10.458;2023-08-30T02:58:44;12.70;99.90
7240;DHT22;3661;53.288;10.458;2023-08-30T03:01:17;12.70;99.90
7240;DHT22;3661;53.288;10.458;2023-08-30T03:04:14;12.60;99.90
7240;DHT22;3661;53.288;10.458;2023-08-30T03:06:56;12.60;99.90
7240;DHT22;3661;53.288;10.458;2023-08-30T03:13:27;12.50;99.90
7240;DHT22;3661;53.288;10.458;2023-08-30T03:16:11;12.50;99.90
7240;DHT22;3661;53.288;10.458;2023-08-30T03:18:44;12.50;99.90
7240;DHT22;3661;53.288;10.458;2023-08-30T03:21:42;12.50;99.90
7240;DHT22;3661;53.288;10.458;2023-08-30T03:24:19;12.40;99.90
7240;DHT22;3661;53.288;10.458;2023-08-30T03:26:52;12.40;99.90
7240;DHT22;3661;53.288;10.458;2023-08-30T03:29:25;12.40;99.90
7240;DHT22;3661;53.288;10.458;2023-08-30T03:31:57;12.40;99.90
7240;DHT22;3661;53.288;10.458;2023-08-30T03:34:37;12.40;99.90
7240;DHT22;3661;53.288;10.458;2023-08-30T03:37:11;12.30;99.90
7240;DHT22;3661;53.288;10.458;2023-08-30T03:39:43;12.30;99.90
7240;DHT22;3661;53.288;10.458;2023-08-30T03:42:16;12.30;99.90
7240;DHT22;3661;53.288;10.458;2023-08-30T03:44:49;12.30;99.90
7240;DHT22;3661;53.288;10.458;2023-08-30T03:47:22;12.30;99.90
7240;DHT22;3661;53.288;10.458;2023-08-30T03:49:59;12.20;99.90
7240;DHT22;3661;53.288;10.458;2023-08-30T03:52:34;12.20;99.90
7240;DHT22;3661;53.288;10.458;2023-08-30T03:55:07;12.20;99.90
7240;DHT22;3661;53.288;10.458;2023-08-30T03:57:39;12.20;99.90
7240;DHT22;3661;53.288;10.458;2023-08-30T04:00:12;12.20;99.90
7240;DHT22;3661;53.288;10.458;2023-08-30T04:02:44;12.20;99.90
7240;DHT22;3661;53.288;10.458;2023-08-30T04:05:17;12.20;99.90
7240;DHT22;3661;53.288;10.458;2023-08-30T04:07:51;12.20;99.90
7240;DHT22;3661;53.288;10.458;2023-08-30T04:10:23;12.10;99.90
7240;DHT22;3661;53.288;10.458;2023-08-30T04:12:56;12.20;99.90
7240;DHT22;3661;53.288;10.458;2023-08-30T04:15:28;12.10;99.90
7240;DHT22;3661;53.288;10.458;2023-08-30T04:18:00;12.20;99.90
7240;DHT22;3661;53.288;10.458;2023-08-30T04:20:32;12.20;99.90
7240;DHT22;3661;53.288;10.458;2023-08-30T04:23:07;12.20;99.90
7240;DHT22;3661;53.288;10.458;2023-08-30T04:25:41;12.20;99.90
7240;DHT22;3661;53.288;10.458;2023-08-30T04:28:15;12.20;99.90
7240;DHT22;3661;53.288;10.458;2023-08-30T04:30:47;12.10;99.90
7240;DHT22;3661;53.288;10.458;2023-08-30T04:33:19;12.20;99.90
7240;DHT22;3661;53.288;10.458;2023-08-30T04:35:52;12.10;99.90
7240;DHT22;3661;53.288;10.458;2023-08-30T04:38:26;12.10;99.90
7240;DHT22;3661;53.288;10.458;2023-08-30T04:40:59;12.10;99.90
7240;DHT22;3661;53.288;10.458;2023-08-30T04:43:33;12.20;99.90
7240;DHT22;3661;53.288;10.458;2023-08-30T04:46:05;12.10;99.90
7240;DHT22;3661;53.288;10.458;2023-08-30T04:48:37;12.10;99.90
7240;DHT22;3661;53.288;10.458;2023-08-30T04:51:09;12.10;99.90
7240;DHT22;3661;53.288;10.458;2023-08-30T04:53:44;12.20;99.90
7240;DHT22;3661;53.288;10.458;2023-08-30T04:56:17;12.20;99.90
7240;DHT22;3661;53.288;10.458;2023-08-30T04:59:08;12.20;99.90
7240;DHT22;3661;53.288;10.458;2023-08-30T05:01:47;12.20;99.90
7240;DHT22;3661;53.288;10.458;2023-08-30T05:04:22;12.20;99.90
7240;DHT22;3661;53.288;10.458;2023-08-30T05:07:26;12.10;99.90
7240;DHT22;3661;53.288;10.458;2023-08-30T05:10:07;12.10;99.90
7240;DHT22;3661;53.288;10.458;2023-08-30T05:12:42;12.10;99.90
7240;DHT22;3661;53.288;10.458;2023-08-30T05:15:18;12.10;99.90
7240;DHT22;3661;53.288;10.458;2023-08-30T05:17:51;12.10;99.90
7240;DHT22;3661;53.288;10.458;2023-08-30T05:20:23;12.10;99.90
7240;DHT22;3661;53.288;10.458;2023-08-30T05:22:57;12.20;99.90
7240;DHT22;3661;53.288;10.458;2023-08-30T05:25:30;12.20;99.90
7240;DHT22;3661;53.288;10.458;2023-08-30T05:28:09;12.20;99.90
7240;DHT22;3661;53.288;10.458;2023-08-30T05:30:48;12.20;99.90
7240;DHT22;3661;53.288;10.458;2023-08-30T05:33:32;12.30;99.90
7240;DHT22;3661;53.288;10.458;2023-08-30T05:36:18;12.30;99.90
7240;DHT22;3661;53.288;10.458;2023-08-30T05:39:04;12.40;99.90
7240;DHT22;3661;53.288;10.458;2023-08-30T05:51:58;12.60;99.90
7240;DHT22;3661;53.288;10.458;2023-08-30T05:55:19;12.70;99.90
7240;DHT22;3661;53.288;10.458;2023-08-30T05:58:03;12.80;99.90
7240;DHT22;3661;53.288;10.458;2023-08-30T06:04:11;12.90;99.90
7240;DHT22;3661;53.288;10.458;2023-08-30T06:06:45;13.00;99.90
7240;DHT22;3661;53.288;10.458;2023-08-30T06:09:18;13.10;99.90
7240;DHT22;3661;53.288;10.458;2023-08-30T06:11:50;13.20;99.90
7240;DHT22;3661;53.288;10.458;2023-08-30T06:14:22;13.20;99.90
7240;DHT22;3661;53.288;10.458;2023-08-30T06:16:54;13.30;99.90
7240;DHT22;3661;53.288;10.458;2023-08-30T06:19:30;13.40;99.90
7240;DHT22;3661;53.288;10.458;2023-08-30T06:22:03;13.40;99.90
7240;DHT22;3661;53.288;10.458;2023-08-30T06:24:35;13.50;99.90
7240;DHT22;3661;53.288;10.458;2023-08-30T06:27:08;13.60;99.90
7240;DHT22;3661;53.288;10.458;2023-08-30T06:29:41;13.70;99.90
7240;DHT22;3661;53.288;10.458;2023-08-30T06:32:14;13.70;99.90
7240;DHT22;3661;53.288;10.458;2023-08-30T06:34:51;13.80;99.90
7240;DHT22;3661;53.288;10.458;2023-08-30T06:37:26;13.90;99.90
7240;DHT22;3661;53.288;10.458;2023-08-30T06:40:00;14.00;99.90
7240;DHT22;3661;53.288;10.458;2023-08-30T06:42:34;14.00;99.90
7240;DHT22;3661;53.288;10.458;2023-08-30T06:45:07;14.10;99.90
7240;DHT22;3661;53.288;10.458;2023-08-30T06:47:39;14.10;99.90
7240;DHT22;3661;53.288;10.458;2023-08-30T06:50:22;14.20;99.90
7240;DHT22;3661;53.288;10.458;2023-08-30T06:52:57;14.30;99.90
7240;DHT22;3661;53.288;10.458;2023-08-30T06:55:29;14.40;99.90
7240;DHT22;3661;53.288;10.458;2023-08-30T06:58:02;14.40;99.90
7240;DHT22;3661;53.288;10.458;2023-08-30T07:00:35;14.50;99.90
7240;DHT22;3661;53.288;10.458;2023-08-30T07:03:07;14.50;99.90
7240;DHT22;3661;53.288;10.458;2023-08-30T07:05:41;14.60;99.90
7240;DHT22;3661;53.288;10.458;2023-08-30T07:08:14;14.60;99.90
7240;DHT22;3661;53.288;10.458;2023-08-30T07:10:46;14.70;99.90
7240;DHT22;3661;53.288;10.458;2023-08-30T07:13:18;14.80;99.90
7240;DHT22;3661;53.288;10.458;2023-08-30T07:15:51;14.90;99.90
7240;DHT22;3661;53.288;10.458;2023-08-30T07:18:24;14.90;99.90
7240;DHT22;3661;53.288;10.458;2023-08-30T07:21:02;15.00;99.90
7240;DHT22;3661;53.288;10.458;2023-08-30T07:23:36;15.10;99.90
7240;DHT22;3661;53.288;10.458;2023-08-30T07:26:09;15.20;99.90
7240;DHT22;3661;53.288;10.458;2023-08-30T07:28:41;15.30;99.90
7240;DHT22;3661;53.288;10.458;2023-08-30T07:31:14;15.30;99.90
7240;DHT22;3661;53.288;10.458;2023-08-30T07:33:50;15.40;99.90
7240;DHT22;3661;53.288;10.458;2023-08-30T07:36:24;15.50;99.90
7240;DHT22;3661;53.288;10.458;2023-08-30T07:38:56;15.60;99.90
7240;DHT22;3661;53.288;10.458;2023-08-30T07:41:29;15.70;99.90
7240;DHT22;3661;53.288;10.458;2023-08-30T07:44:04;15.70;99.90
7240;DHT22;3661;53.288;10.458;2023-08-30T07:46:36;15.80;99.90
7240;DHT22;3661;53.288;10.458;2023-08-30T07:49:08;15.90;99.90
7240;DHT22;3661;53.288;10.458;2023-08-30T07:51:42;16.00;99.90
7240;DHT22;3661;53.288;10.458;2023-08-30T07:54:15;16.10;99.90
7240;DHT22;3661;53.288;10.458;2023-08-30T07:56:47;16.20;99.90
7240;DHT22;3661;53.288;10.458;2023-08-30T07:59:22;16.30;99.90
7240;DHT22;3661;53.288;10.458;2023-08-30T08:01:55;16.40;99.90
7240;DHT22;3661;53.288;10.458;2023-08-30T08:04:27;16.50;99.90
7240;DHT22;3661;53.288;10.458;2023-08-30T08:07:01;16.60;99.90
7240;DHT22;3661;53.288;10.458;2023-08-30T08:09:33;16.80;99.90
7240;DHT22;3661;53.288;10.458;2023-08-30T08:12:06;16.90;99.90
7240;DHT22;3661;53.288;10.458;2023-08-30T08:14:39;17.00;99.90
7240;DHT22;3661;53.288;10.458;2023-08-30T08:17:12;17.20;99.90
7240;DHT22;3661;53.288;10.458;2023-08-30T08:19:45;17.30;99.90
7240;DHT22;3661;53.288;10.458;2023-08-30T08:22:18;17.50;99.90
7240;DHT22;3661;53.288;10.458;2023-08-30T08:24:50;17.70;99.90
7240;DHT22;3661;53.288;10.458;2023-08-30T08:27:24;17.80;99.90
7240;DHT22;3661;53.288;10.458;2023-08-30T08:29:57;18.00;99.90
7240;DHT22;3661;53.288;10.458;2023-08-30T08:32:29;18.20;99.90
7240;DHT22;3661;53.288;10.458;2023-08-30T08:35:01;18.40;99.90
7240;DHT22;3661;53.288;10.458;2023-08-30T08:37:46;18.60;99.90
7240;DHT22;3661;53.288;10.458;2023-08-30T08:40:29;18.80;99.90
7240;DHT22;3661;53.288;10.458;2023-08-30T08:43:01;18.90;99.90
7240;DHT22;3661;53.288;10.458;2023-08-30T08:45:38;19.10;99.90
7240;DHT22;3661;53.288;10.458;2023-08-30T08:48:11;19.30;99.90
7240;DHT22;3661;53.288;10.458;2023-08-30T08:50:44;19.50;99.90
7240;DHT22;3661;53.288;10.458;2023-08-30T08:53:19;19.60;99.90
7240;DHT22;3661;53.288;10.458;2023-08-30T08:55:52;19.80;99.90
7240;DHT22;3661;53.288;10.458;2023-08-30T08:58:26;20.00;99.90
7240;DHT22;3661;53.288;10.458;2023-08-30T09:00:58;20.10;99.90
7240;DHT22;3661;53.288;10.458;2023-08-30T09:03:33;20.30;99.90
7240;DHT22;3661;53.288;10.458;2023-08-30T09:06:07;20.40;99.90
7240;DHT22;3661;53.288;10.458;2023-08-30T09:08:41;20.60;99.90
7240;DHT22;3661;53.288;10.458;2023-08-30T09:11:13;20.70;99.90
7240;DHT22;3661;53.288;10.458;2023-08-30T09:13:47;20.80;99.90
7240;DHT22;3661;53.288;10.458;2023-08-30T09:16:20;20.90;99.90
7240;DHT22;3661;53.288;10.458;2023-08-30T09:18:58;20.90;99.90
7240;DHT22;3661;53.288;10.458;2023-08-30T09:21:31;21.00;99.90
7240;DHT22;3661;53.288;10.458;2023-08-30T09:24:06;21.00;99.90
7240;DHT22;3661;53.288;10.458;2023-08-30T09:26:47;21.10;99.90
7240;DHT22;3661;53.288;10.458;2023-08-30T09:29:21;21.20;99.90
7240;DHT22;3661;53.288;10.458;2023-08-30T09:31:53;21.30;99.90
7240;DHT22;3661;53.288;10.458;2023-08-30T09:34:27;21.40;99.90
7240;DHT22;3661;53.288;10.458;2023-08-30T09:36:59;21.40;99.90
7240;DHT22;3661;53.288;10.458;2023-08-30T09:39:34;21.50;99.90
7240;DHT22;3661;53.288;10.458;2023-08-30T09:42:07;21.60;99.90
7240;DHT22;3661;53.288;10.458;2023-08-30T09:44:39;21.70;99.90
7240;DHT22;3661;53.288;10.458;2023-08-30T09:47:13;21.70;99.90
7240;DHT22;3661;53.288;10.458;2023-08-30T09:49:46;21.70;99.90
7240;DHT22;3661;53.288;10.458;2023-08-30T09:52:19;21.80;99.90
7240;DHT22;3661;53.288;10.458;2023-08-30T09:54:56;21.80;99.90
7240;DHT22;3661;53.288;10.458;2023-08-30T09:57:29;21.80;99.90
7240;DHT22;3661;53.288;10.458;2023-08-30T10:00:02;21.80;99.90
7240;DHT22;3661;53.288;10.458;2023-08-30T10:02:35;21.80;99.90
7240;DHT22;3661;53.288;10.458;2023-08-30T10:05:08;21.80;99.90
7240;DHT22;3661;53.288;10.458;2023-08-30T10:07:40;21.80;99.90
7240;DHT22;3661;53.288;10.458;2023-08-30T10:10:15;21.90;99.90
7240;DHT22;3661;53.288;10.458;2023-08-30T10:12:48;21.90;99.90
7240;DHT22;3661;53.288;10.458;2023-08-30T10:15:25;21.90;99.90
7240;DHT22;3661;53.288;10.458;2023-08-30T10:17:58;21.90;99.90
7240;DHT22;3661;53.288;10.458;2023-08-30T10:20:33;22.00;99.90
7240;DHT22;3661;53.288;10.458;2023-08-30T10:23:06;22.00;99.90
7240;DHT22;3661;53.288;10.458;2023-08-30T10:25:41;22.00;99.90
7240;DHT22;3661;53.288;10.458;2023-08-30T10:28:14;22.10;99.90
7240;DHT22;3661;53.288;10.458;2023-08-30T10:30:47;22.10;99.90
7240;DHT22;3661;53.288;10.458;2023-08-30T10:33:20;22.20;99.90
7240;DHT22;3661;53.288;10.458;2023-08-30T10:36:05;22.20;99.90
7240;DHT22;3661;53.288;10.458;2023-08-30T10:38:49;22.30;99.90
7240;DHT22;3661;53.288;10.458;2023-08-30T10:41:24;22.30;99.90
7240;DHT22;3661;53.288;10.458;2023-08-30T10:43:56;22.40;99.90
7240;DHT22;3661;53.288;10.458;2023-08-30T10:46:32;22.50;99.90
7240;DHT22;3661;53.288;10.458;2023-08-30T10:49:14;22.50;99.90
7240;DHT22;3661;53.288;10.458;2023-08-30T10:51:57;22.60;99.90
7240;DHT22;3661;53.288;10.458;2023-08-30T10:54:37;22.70;99.90
7240;DHT22;3661;53.288;10.458;2023-08-30T10:57:18;22.80;99.90
7240;DHT22;3661;53.288;10.458;2023-08-30T11:00:08;22.90;99.90
7240;DHT22;3661;53.288;10.458;2023-08-30T11:02:44;23.00;99.90
7240;DHT22;3661;53.288;10.458;2023-08-30T11:05:18;23.10;99.90
7240;DHT22;3661;53.288;10.458;2023-08-30T11:07:52;23.10;99.90
7240;DHT22;3661;53.288;10.458;2023-08-30T11:10:25;23.10;99.90
7240;DHT22;3661;53.288;10.458;2023-08-30T11:12:58;23.10;99.90
7240;DHT22;3661;53.288;10.458;2023-08-30T11:15:33;23.10;99.90
7240;DHT22;3661;53.288;10.458;2023-08-30T11:18:06;23.10;99.90
7240;DHT22;3661;53.288;10.458;2023-08-30T11:20:39;23.10;99.90
7240;DHT22;3661;53.288;10.458;2023-08-30T11:23:11;23.00;99.90
7240;DHT22;3661;53.288;10.458;2023-08-30T11:25:50;23.00;99.90
7240;DHT22;3661;53.288;10.458;2023-08-30T11:28:25;22.90;99.90
7240;DHT22;3661;53.288;10.458;2023-08-30T11:30:58;22.90;99.90
7240;DHT22;3661;53.288;10.458;2023-08-30T11:33:31;22.90;99.90
7240;DHT22;3661;53.288;10.458;2023-08-30T11:36:05;22.90;99.90
7240;DHT22;3661;53.288;10.458;2023-08-30T11:38:38;22.90;99.90
7240;DHT22;3661;53.288;10.458;2023-08-30T11:41:13;22.90;99.90
7240;DHT22;3661;53.288;10.458;2023-08-30T11:43:50;22.90;99.90
7240;DHT22;3661;53.288;10.458;2023-08-30T11:46:22;22.90;99.90
7240;DHT22;3661;53.288;10.458;2023-08-30T11:48:54;22.90;99.90
7240;DHT22;3661;53.288;10.458;2023-08-30T11:51:26;22.90;99.90
7240;DHT22;3661;53.288;10.458;2023-08-30T11:53:59;22.90;99.90
7240;DHT22;3661;53.288;10.458;2023-08-30T11:56:33;22.90;99.90
7240;DHT22;3661;53.288;10.458;2023-08-30T11:59:07;22.90;99.90
7240;DHT22;3661;53.288;10.458;2023-08-30T12:01:51;22.80;99.90
7240;DHT22;3661;53.288;10.458;2023-08-30T12:04:24;22.80;99.90
7240;DHT22;3661;53.288;10.458;2023-08-30T12:06:56;22.70;99.90
7240;DHT22;3661;53.288;10.458;2023-08-30T12:09:32;22.70;99.90
7240;DHT22;3661;53.288;10.458;2023-08-30T12:12:08;22.60;99.90
7240;DHT22;3661;53.288;10.458;2023-08-30T12:14:42;22.60;99.90
7240;DHT22;3661;53.288;10.458;2023-08-30T12:17:14;22.50;99.90
7240;DHT22;3661;53.288;10.458;2023-08-30T12:19:46;22.40;99.90
7240;DHT22;3661;53.288;10.458;2023-08-30T12:22:36;22.40;99.90
7240;DHT22;3661;53.288;10.458;2023-08-30T12:25:18;22.30;99.90
7240;DHT22;3661;53.288;10.458;2023-08-30T12:27:51;22.20;99.90
7240;DHT22;3661;53.288;10.458;2023-08-30T12:30:25;22.10;99.90
7240;DHT22;3661;53.288;10.458;2023-08-30T12:33:00;22.10;99.90
7240;DHT22;3661;53.288;10.458;2023-08-30T12:35:33;22.10;99.90
7240;DHT22;3661;53.288;10.458;2023-08-30T12:38:05;22.00;99.90
7240;DHT22;3661;53.288;10.458;2023-08-30T12:40:37;22.00;99.90
7240;DHT22;3661;53.288;10.458;2023-08-30T12:43:10;22.00;99.90
7240;DHT22;3661;53.288;10.458;2023-08-30T12:45:44;22.00;99.90
7240;DHT22;3661;53.288;10.458;2023-08-30T12:48:18;21.90;99.90
7240;DHT22;3661;53.288;10.458;2023-08-30T12:50:50;21.90;99.90
7240;DHT22;3661;53.288;10.458;2023-08-30T12:53:22;21.90;99.90
7240;DHT22;3661;53.288;10.458;2023-08-30T12:55:54;21.90;99.90
7240;DHT22;3661;53.288;10.458;2023-08-30T12:58:26;21.90;99.90
7240;DHT22;3661;53.288;10.458;2023-08-30T13:01:00;21.90;99.90
7240;DHT22;3661;53.288;10.458;2023-08-30T13:03:32;21.90;99.90
7240;DHT22;3661;53.288;10.458;2023-08-30T13:06:04;21.90;99.90
7240;DHT22;3661;53.288;10.458;2023-08-30T13:08:36;21.90;99.90
7240;DHT22;3661;53.288;10.458;2023-08-30T13:11:08;22.00;99.90
7240;DHT22;3661;53.288;10.458;2023-08-30T13:13:41;22.00;99.90
7240;DHT22;3661;53.288;10.458;2023-08-30T13:19:16;22.20;99.90
7240;DHT22;3661;53.288;10.458;2023-08-30T13:21:48;22.20;99.90
7240;DHT22;3661;53.288;10.458;2023-08-30T13:24:20;22.30;99.90
7240;DHT22;3661;53.288;10.458;2023-08-30T13:26:52;22.30;99.90
7240;DHT22;3661;53.288;10.458;2023-08-30T13:29:25;22.40;99.90
7240;DHT22;3661;53.288;10.458;2023-08-30T13:31:57;22.40;99.90
7240;DHT22;3661;53.288;10.458;2023-08-30T13:34:30;22.40;99.90
7240;DHT22;3661;53.288;10.458;2023-08-30T13:37:07;22.40;99.90
7240;DHT22;3661;53.288;10.458;2023-08-30T13:39:39;22.40;99.90
7240;DHT22;3661;53.288;10.458;2023-08-30T13:42:21;22.40;99.90
7240;DHT22;3661;53.288;10.458;2023-08-30T13:44:56;22.30;99.90
7240;DHT22;3661;53.288;10.458;2023-08-30T13:47:28;22.40;99.90
7240;DHT22;3661;53.288;10.458;2023-08-30T13:50:02;22.40;99.90
7240;DHT22;3661;53.288;10.458;2023-08-30T13:52:37;22.40;99.90
7240;DHT22;3661;53.288;10.458;2023-08-30T13:55:19;22.40;99.90
7240;DHT22;3661;53.288;10.458;2023-08-30T13:57:51;22.50;99.90
7240;DHT22;3661;53.288;10.458;2023-08-30T14:00:24;22.50;99.90
7240;DHT22;3661;53.288;10.458;2023-08-30T14:02:56;22.60;99.90
7240;DHT22;3661;53.288;10.458;2023-08-30T14:05:30;22.60;99.90
7240;DHT22;3661;53.288;10.458;2023-08-30T14:08:02;22.70;99.90
7240;DHT22;3661;53.288;10.458;2023-08-30T14:10:36;22.80;99.90
7240;DHT22;3661;53.288;10.458;2023-08-30T14:13:08;22.90;99.90
7240;DHT22;3661;53.288;10.458;2023-08-30T14:15:41;23.00;99.90
7240;DHT22;3661;53.288;10.458;2023-08-30T14:18:15;23.20;99.90
7240;DHT22;3661;53.288;10.458;2023-08-30T14:20:49;23.30;99.90
7240;DHT22;3661;53.288;10.458;2023-08-30T14:23:22;23.40;99.90
7240;DHT22;3661;53.288;10.458;2023-08-30T14:25:57;23.60;99.90
7240;DHT22;3661;53.288;10.458;2023-08-30T14:28:36;23.70;99.90
7240;DHT22;3661;53.288;10.458;2023-08-30T14:31:17;23.80;99.90
7240;DHT22;3661;53.288;10.458;2023-08-30T14:33:49;23.90;99.90
7240;DHT22;3661;53.288;10.458;2023-08-30T14:36:23;24.00;99.90
7240;DHT22;3661;53.288;10.458;2023-08-30T14:38:55;24.10;99.90
7240;DHT22;3661;53.288;10.458;2023-08-30T14:41:27;24.20;99.90
7240;DHT22;3661;53.288;10.458;2023-08-30T14:43:59;24.30;99.90
7240;DHT22;3661;53.288;10.458;2023-08-30T14:46:33;24.40;99.90
7240;DHT22;3661;53.288;10.458;2023-08-30T14:49:05;24.50;99.90
7240;DHT22;3661;53.288;10.458;2023-08-30T14:51:39;24.60;99.90
7240;DHT22;3661;53.288;10.458;2023-08-30T14:54:11;24.60;99.90
7240;DHT22;3661;53.288;10.458;2023-08-30T14:56:43;24.70;99.90
7240;DHT22;3661;53.288;10.458;2023-08-30T14:59:17;24.80;99.90
7240;DHT22;3661;53.288;10.458;2023-08-30T15:01:50;24.80;99.90
7240;DHT22;3661;53.288;10.458;2023-08-30T15:04:23;24.90;99.90
7240;DHT22;3661;53.288;10.458;2023-08-30T15:06:56;24.90;99.90
7240;DHT22;3661;53.288;10.458;2023-08-30T15:09:30;24.90;99.90
7240;DHT22;3661;53.288;10.458;2023-08-30T15:12:02;24.90;99.90
7240;DHT22;3661;53.288;10.458;2023-08-30T15:14:35;24.80;99.90
7240;DHT22;3661;53.288;10.458;2023-08-30T15:17:07;24.80;99.90
7240;DHT22;3661;53.288;10.458;2023-08-30T15:19:39;24.80;99.90
7240;DHT22;3661;53.288;10.458;2023-08-30T15:22:13;24.80;99.90
7240;DHT22;3661;53.288;10.458;2023-08-30T15:24:48;24.70;99.90
7240;DHT22;3661;53.288;10.458;2023-08-30T15:27:20;24.70;99.90
7240;DHT22;3661;53.288;10.458;2023-08-30T15:29:52;24.70;99.90
7240;DHT22;3661;53.288;10.458;2023-08-30T15:32:26;24.60;99.90
7240;DHT22;3661;53.288;10.458;2023-08-30T15:34:59;24.60;99.90
7240;DHT22;3661;53.288;10.458;2023-08-30T15:37:32;24.50;99.90
7240;DHT22;3661;53.288;10.458;2023-08-30T15:40:07;24.40;99.90
7240;DHT22;3661;53.288;10.458;2023-08-30T15:42:40;24.30;99.90
7240;DHT22;3661;53.288;10.458;2023-08-30T15:45:12;24.20;99.90
7240;DHT22;3661;53.288;10.458;2023-08-30T15:47:44;24.10;99.90
7240;DHT22;3661;53.288;10.458;2023-08-30T15:50:17;24.00;99.90
7240;DHT22;3661;53.288;10.458;2023-08-30T15:52:50;23.90;99.90
7240;DHT22;3661;53.288;10.458;2023-08-30T15:55:26;23.90;99.90
7240;DHT22;3661;53.288;10.458;2023-08-30T15:58:01;23.70;99.90
7240;DHT22;3661;53.288;10.458;2023-08-30T16:00:34;23.60;99.90
7240;DHT22;3661;53.288;10.458;2023-08-30T16:03:11;23.50;99.90
7240;DHT22;3661;53.288;10.458;2023-08-30T16:05:43;23.40;99.90
7240;DHT22;3661;53.288;10.458;2023-08-30T16:08:17;23.30;99.90
7240;DHT22;3661;53.288;10.458;2023-08-30T16:11:00;23.20;99.90
7240;DHT22;3661;53.288;10.458;2023-08-30T16:13:32;23.10;99.90
7240;DHT22;3661;53.288;10.458;2023-08-30T16:16:04;23.00;99.90
7240;DHT22;3661;53.288;10.458;2023-08-30T16:18:37;23.00;99.90
7240;DHT22;3661;53.288;10.458;2023-08-30T16:21:09;22.90;99.90
7240;DHT22;3661;53.288;10.458;2023-08-30T16:23:42;22.70;99.90
7240;DHT22;3661;53.288;10.458;2023-08-30T16:26:15;22.60;99.90
7240;DHT22;3661;53.288;10.458;2023-08-30T16:28:47;22.50;99.90
7240;DHT22;3661;53.288;10.458;2023-08-30T16:31:27;22.40;99.90
7240;DHT22;3661;53.288;10.458;2023-08-30T16:34:15;22.30;99.90
7240;DHT22;3661;53.288;10.458;2023-08-30T16:37:03;22.20;99.90
7240;DHT22;3661;53.288;10.458;2023-08-30T16:39:39;22.10;99.90
7240;DHT22;3661;53.288;10.458;2023-08-30T16:42:34;22.00;99.90
7240;DHT22;3661;53.288;10.458;2023-08-30T16:45:13;21.90;99.90
7240;DHT22;3661;53.288;10.458;2023-08-30T17:01:10;21.10;99.90
7240;DHT22;3661;53.288;10.458;2023-08-30T17:03:42;20.90;99.90
7240;DHT22;3661;53.288;10.458;2023-08-30T17:06:17;20.80;99.90
7240;DHT22;3661;53.288;10.458;2023-08-30T17:08:59;20.70;99.90